• Join FlightAware (Why Join?)
  • Login
  • US Flag 
Rudolph Flight #1: Arrived! 
02:02PM EST


 

Airport Tracker/Info


-or-


 

Live Flight TrackerFlight Track Log ✈ BLS384 ✈ 14-Jan-2014 ✈ CYQT - CYAM

Flight Track Log - Related Links

Times and Time Zones

All times are in EST time to prevent confusion due to time zone crossing. See the BLS384 flight status page for this flight to view local times or setup timezone preferences in your user account.

Time Position Orientation Groundspeed Altitude Reporting Facility
EST Latitude Longitude Course Direction KTS MPH feet Rate Location/Type
04:06PM 48.3500 -89.2667 326° Northwest 10 12 600  Level Winnipeg Center
04:07PM 48.3667 -89.2833 326° Northwest 100 115 700 1,140 Climbing Winnipeg Center
04:08PM 48.3333 -89.3333 225° Southwest 160 184 3,300 2,340 Climbing Winnipeg Center
04:09PM 48.3000 -89.3167 162° South 180 207 5,400 2,280 Climbing Winnipeg Center
04:10PM 48.2667 -89.2500 127° Southeast 200 230 7,900 2,220 Climbing Winnipeg Center
04:11PM 48.2333 -89.1833 127° Southeast 210 242 9,900 2,040 Climbing Winnipeg Center
04:12PM 48.2167 -89.1000 107° East 220 253 12,000 1,680 Climbing Winnipeg Center
04:13PM 48.1833 -89.0167 121° Southeast 230 265 13,300 1,320 Climbing Winnipeg Center
04:14PM 48.1500 -88.9333 121° Southeast 240 276 14,700 1,320 Climbing Winnipeg Center
04:15PM 48.1333 -88.8500 107° East 250 288 16,000 1,140 Climbing Winnipeg Center
04:16PM 48.0833 -88.7500 127° Southeast 250 288 17,000 960 Climbing Winnipeg Center
04:17PM 48.0667 -88.6500 104° East 260 299 18,000 900 Climbing Winnipeg Center
04:18PM 48.0167 -88.5667 132° Southeast 260 299 18,900 480 Climbing Winnipeg Center
04:19PM 47.9833 -88.4667 116° Southeast 270 311 19,000  Climbing Winnipeg Center
04:20PM 47.9500 -88.3500 113° Southeast 290 334 19,000  Level Winnipeg Center
04:21PM 47.9167 -88.2500 116° Southeast 300 345 19,000  Level Winnipeg Center
04:22PM 47.8667 -88.1333 123° Southeast 310 357 19,000 -60 Level Winnipeg Center
04:23PM 47.8333 -88.0167 113° Southeast 310 357 18,900  Descending Winnipeg Center
04:24PM 47.7833 -87.9000 122° Southeast 310 357 19,000  Climbing Winnipeg Center
04:25PM 47.7333 -87.7833 122° Southeast 310 357 18,900 -60 Descending Winnipeg Center
04:26PM 47.7000 -87.7000 121° Southeast 310 357 18,900  Level Winnipeg Center
04:27PM 47.6500 -87.5833 122° Southeast 310 357 18,900  Level Winnipeg Center
04:28PM 47.6167 -87.4667 113° Southeast 310 357 19,000 180 Climbing Winnipeg Center
04:29PM 47.5667 -87.3500 122° Southeast 310 357 19,300 600 Climbing Winnipeg Center
04:30PM 47.5500 -87.2500 104° East 290 334 20,200 660 Climbing Winnipeg Center
04:31PM 47.5000 -87.1333 122° Southeast 280 322 20,700 360 Climbing Winnipeg Center
04:32PM 47.4667 -87.0333 116° Southeast 280 322 21,000 60 Climbing Winnipeg Center
04:34PM 47.4167 -86.9000 119° Southeast 290 334 21,000  Level Toronto Center
04:35PM 47.3833 -86.8000 116° Southeast 290 334 21,000  Level Toronto Center
04:36PM 47.3333 -86.7000 126° Southeast 300 345 21,000 -60 Level Toronto Center
04:37PM 47.3000 -86.5833 113° Southeast 300 345 20,900  Descending Toronto Center
04:38PM 47.2500 -86.4833 126° Southeast 300 345 21,000  Climbing Toronto Center
04:39PM 47.2167 -86.3667 113° Southeast 300 345 20,900 -60 Descending Toronto Center
04:40PM 47.1833 -86.2833 120° Southeast 290 334 20,900  Level Toronto Center
04:41PM 47.1333 -86.1833 126° Southeast 290 334 20,900  Level Toronto Center
04:42PM 47.0833 -86.0500 119° Southeast 290 334 21,000  Climbing Toronto Center
04:43PM 47.0667 -85.9667 106° East 290 334 21,000 -60 Level Toronto Center
04:44PM 47.0167 -85.8667 126° Southeast 290 334 20,900 -120 Descending Toronto Center
04:45PM 46.9667 -85.7500 122° Southeast 290 334 20,800  Descending Toronto Center
04:46PM 46.9333 -85.6333 113° Southeast 290 334 20,900 -420 Climbing Toronto Center
04:47PM 46.8833 -85.5667 138° Southeast 290 334 20,000 -1,260 Descending Toronto Center
04:48PM 46.8333 -85.4333 119° Southeast 320 368 18,400 -1,560 Descending Toronto Center
04:49PM 46.8000 -85.3333 116° Southeast 310 357 16,900 -1,620 Descending Toronto Center
04:50PM 46.7500 -85.2500 131° Southeast 300 345 15,200 -1,800 Descending Toronto Center
04:51PM 46.7000 -85.1333 122° Southeast 290 334 13,300 -1,980 Descending Toronto Center
04:52PM 46.6500 -85.0500 131° Southeast 290 334 11,300 -2,400 Descending Toronto Center
04:53PM 46.6167 -84.9500 116° Southeast 280 322 8,500 -2,940 Descending Toronto Center
04:54PM 46.5667 -84.8667 131° Southeast 260 299 5,500 -2,760 Descending Toronto Center
04:55PM 46.5333 -84.8000 126° Southeast 250 288 3,000 -1,500 Descending Toronto Center
04:56PM 46.5167 -84.7167 106° East 190 219 2,500 -300 Descending Toronto Center
04:57PM 46.5000 -84.6500 110° East 180 207 2,500 -480 Level Toronto Center
04:58PM 46.5000 -84.6000 90° East 160 184 1,600 -900 Descending Toronto Center
04:59PM 46.4833 -84.5167 106° East 150 173 800 -600 Descending Toronto Center
05:00PM 46.4667 -84.5000 145° Southeast 120 138 500 -300 Descending Toronto Center